createdAt,value
2023-02-20T00:01:55.842Z,1.60
2023-02-20T00:04:25.456Z,1.60
2023-02-20T00:06:58.724Z,1.80
2023-02-20T00:09:28.416Z,1.70
2023-02-20T00:11:57.397Z,2.00
2023-02-20T00:14:30.233Z,2.00
2023-02-20T00:16:58.690Z,1.60
2023-02-20T00:19:28.409Z,1.60
2023-02-20T00:22:00.564Z,1.60
2023-02-20T00:24:29.163Z,1.60
2023-02-20T00:26:57.666Z,1.40
2023-02-20T00:29:25.869Z,1.70
2023-02-20T00:31:57.716Z,1.70
2023-02-20T00:34:27.750Z,2.00
2023-02-20T00:37:03.625Z,1.40
2023-02-20T00:39:32.259Z,1.70
2023-02-20T00:42:01.037Z,1.60
2023-02-20T00:44:33.869Z,1.80
2023-02-20T00:47:04.088Z,2.10
2023-02-20T00:49:33.080Z,1.80
2023-02-20T00:52:21.528Z,1.80
2023-02-20T00:54:51.425Z,2.50
2023-02-20T00:57:20.075Z,2.10
2023-02-20T00:59:49.053Z,1.80
2023-02-20T01:02:39.116Z,1.90
2023-02-20T01:05:07.387Z,2.00
2023-02-20T01:07:37.369Z,2.00
2023-02-20T01:10:10.211Z,1.70
2023-02-20T01:12:38.847Z,1.80
2023-02-20T01:15:08.386Z,1.60
2023-02-20T01:17:36.855Z,1.70
2023-02-20T01:20:07.552Z,1.70
2023-02-20T01:22:35.645Z,1.50
2023-02-20T01:25:04.569Z,2.40
2023-02-20T01:27:35.048Z,2.50
2023-02-20T01:30:04.201Z,1.70
2023-02-20T01:32:33.311Z,1.30
2023-02-20T01:35:02.221Z,1.40
2023-02-20T01:37:32.040Z,1.20
2023-02-20T01:40:00.289Z,1.40
2023-02-20T01:42:32.289Z,1.40
2023-02-20T01:45:23.160Z,2.10
2023-02-20T01:47:53.749Z,1.70
2023-02-20T01:50:41.929Z,1.70
2023-02-20T01:53:12.905Z,1.30
2023-02-20T01:55:46.346Z,1.40
2023-02-20T01:58:16.944Z,2.20
2023-02-20T02:00:45.526Z,1.50
2023-02-20T02:03:23.613Z,1.10
2023-02-20T02:05:59.895Z,1.50
2023-02-20T02:08:30.631Z,1.70
2023-02-20T02:11:03.995Z,1.40
2023-02-20T02:13:37.043Z,1.90
2023-02-20T02:16:18.063Z,1.90
2023-02-20T02:19:23.951Z,1.40
2023-02-20T02:21:58.626Z,1.60
2023-02-20T02:24:39.080Z,2.00
2023-02-20T02:27:13.716Z,1.60
2023-02-20T02:29:51.064Z,1.80
2023-02-20T02:32:40.983Z,1.70
2023-02-20T02:35:51.340Z,2.10
2023-02-20T02:38:38.612Z,1.90
2023-02-20T02:41:09.131Z,1.60
2023-02-20T02:43:52.829Z,1.50
2023-02-20T02:46:51.808Z,1.50
2023-02-20T02:49:56.028Z,1.40
2023-02-20T02:52:45.116Z,2.00
2023-02-20T02:55:16.307Z,1.80
2023-02-20T02:57:44.851Z,1.90
2023-02-20T03:00:13.571Z,1.60
2023-02-20T03:03:29.731Z,1.50
2023-02-20T03:06:05.694Z,1.50
2023-02-20T03:08:40.086Z,1.10
2023-02-20T03:11:12.149Z,1.50
2023-02-20T03:14:09.068Z,1.60
2023-02-20T03:16:55.022Z,1.30
2023-02-20T03:19:34.037Z,1.70
2023-02-20T03:22:03.273Z,1.30
2023-02-20T03:24:31.873Z,1.40
2023-02-20T03:27:01.732Z,1.40
2023-02-20T03:29:34.732Z,1.40
2023-02-20T03:32:26.475Z,1.40
2023-02-20T03:35:13.707Z,1.60
2023-02-20T03:38:02.044Z,1.40
2023-02-20T03:40:54.503Z,1.50
2023-02-20T03:43:26.646Z,1.60
2023-02-20T03:46:16.260Z,1.60
2023-02-20T03:48:55.120Z,1.20
2023-02-20T03:51:42.896Z,1.60
2023-02-20T03:56:53.258Z,1.10
2023-02-20T03:59:43.687Z,1.00
2023-02-20T04:02:20.530Z,1.30
2023-02-20T04:04:53.546Z,0.90
2023-02-20T04:07:41.822Z,1.00
2023-02-20T04:10:15.226Z,1.10
2023-02-20T04:12:44.183Z,1.20
2023-02-20T04:15:12.932Z,1.00
2023-02-20T04:18:08.087Z,1.20
2023-02-20T04:20:37.046Z,1.10
2023-02-20T04:23:14.857Z,1.60
2023-02-20T04:26:04.417Z,1.20
2023-02-20T04:28:35.265Z,1.50
2023-02-20T04:31:05.528Z,1.40
2023-02-20T04:33:35.716Z,1.40
2023-02-20T04:36:09.025Z,1.10
2023-02-20T04:38:38.245Z,1.10
2023-02-20T04:41:08.287Z,1.60
2023-02-20T04:43:37.256Z,1.30
2023-02-20T04:46:08.879Z,1.30
2023-02-20T04:48:38.125Z,1.30
2023-02-20T04:51:07.942Z,1.40
2023-02-20T04:53:37.134Z,1.30
2023-02-20T04:56:05.984Z,1.30
2023-02-20T04:58:37.430Z,1.10
2023-02-20T05:01:18.584Z,1.40
2023-02-20T05:03:47.303Z,1.20
2023-02-20T05:06:15.882Z,1.30
2023-02-20T05:08:49.354Z,1.20
2023-02-20T05:11:18.956Z,1.10
2023-02-20T05:13:48.730Z,1.80
2023-02-20T05:17:29.499Z,1.20
2023-02-20T05:19:57.802Z,1.50
2023-02-20T05:22:25.864Z,1.40
2023-02-20T05:24:54.591Z,1.40
2023-02-20T05:27:23.811Z,1.30
2023-02-20T05:29:57.522Z,1.30
2023-02-20T05:32:27.658Z,1.60
2023-02-20T05:34:56.506Z,1.90
2023-02-20T05:37:26.223Z,1.40
2023-02-20T05:39:54.671Z,1.60
2023-02-20T05:42:23.431Z,1.30
2023-02-20T05:44:54.028Z,1.50
2023-02-20T05:47:22.964Z,1.70
2023-02-20T05:49:51.465Z,1.20
2023-02-20T05:52:19.723Z,1.10
2023-02-20T05:54:49.380Z,1.40
2023-02-20T05:57:17.938Z,2.00
2023-02-20T05:59:46.387Z,1.70
2023-02-20T06:02:14.689Z,1.30
2023-02-20T06:04:43.430Z,1.80
2023-02-20T06:07:12.259Z,1.40
2023-02-20T06:09:44.323Z,1.40
2023-02-20T06:12:12.977Z,1.90
2023-02-20T06:14:41.838Z,1.60
2023-02-20T06:17:10.146Z,1.60
2023-02-20T06:19:38.919Z,1.60
2023-02-20T06:22:10.215Z,1.60
2023-02-20T06:24:39.722Z,1.90
2023-02-20T06:27:08.840Z,1.50
2023-02-20T06:29:38.000Z,1.80
2023-02-20T06:32:06.610Z,2.10
2023-02-20T06:34:39.830Z,2.10
2023-02-20T06:37:08.285Z,2.00
2023-02-20T06:39:36.542Z,2.00
2023-02-20T06:42:05.941Z,2.00
2023-02-20T06:44:34.382Z,1.40
2023-02-20T06:47:03.742Z,1.10
2023-02-20T06:49:32.461Z,1.50
2023-02-20T06:52:04.123Z,1.60
2023-02-20T06:54:34.603Z,1.70
2023-02-20T06:57:03.089Z,4.80
2023-02-20T06:59:39.909Z,1.80
2023-02-20T07:02:12.535Z,1.80
2023-02-20T07:04:41.421Z,2.00
2023-02-20T07:07:09.628Z,2.30
2023-02-20T07:09:39.842Z,2.30
2023-02-20T07:12:10.064Z,1.90
2023-02-20T07:14:38.961Z,2.00
2023-02-20T07:17:07.290Z,1.80
2023-02-20T07:19:35.400Z,3.60
2023-02-20T07:22:04.156Z,2.00
2023-02-20T07:24:32.992Z,1.80
2023-02-20T07:27:01.140Z,2.40
2023-02-20T07:29:29.185Z,2.10
2023-02-20T07:31:57.181Z,1.80
2023-02-20T07:34:25.619Z,2.20
2023-02-20T07:36:54.078Z,2.80
2023-02-20T07:39:22.395Z,3.00
2023-02-20T07:41:51.086Z,2.90
2023-02-20T07:47:15.471Z,1.50
2023-02-20T07:49:44.077Z,2.10
2023-02-20T07:52:13.972Z,2.40
2023-02-20T07:54:42.341Z,1.90
2023-02-20T07:57:10.518Z,1.60
2023-02-20T07:59:39.719Z,1.90
2023-02-20T08:02:07.966Z,2.30
2023-02-20T08:04:36.372Z,2.10
2023-02-20T08:07:06.860Z,2.30
2023-02-20T08:09:35.643Z,1.90
2023-02-20T08:12:04.085Z,1.60
2023-02-20T08:14:36.074Z,2.00
2023-02-20T08:17:05.478Z,1.90
2023-02-20T08:19:33.653Z,1.50
2023-02-20T08:22:01.708Z,1.50
2023-02-20T08:24:30.091Z,2.90
2023-02-20T08:26:59.392Z,3.30
2023-02-20T08:29:28.158Z,2.80
2023-02-20T08:31:56.330Z,2.30
2023-02-20T08:34:25.163Z,2.30
2023-02-20T08:36:53.287Z,2.40
2023-02-20T08:39:22.009Z,1.90
2023-02-20T08:41:51.088Z,1.90
2023-02-20T08:44:19.149Z,1.80
2023-02-20T08:46:52.471Z,1.80
2023-02-20T08:49:22.686Z,2.20
2023-02-20T08:51:55.680Z,2.30
2023-02-20T08:54:24.843Z,2.70
2023-02-20T08:56:54.245Z,1.90
2023-02-20T08:59:31.449Z,1.90
2023-02-20T09:01:59.864Z,2.00
2023-02-20T09:04:28.095Z,1.80
2023-02-20T09:06:57.367Z,1.80
2023-02-20T09:09:25.431Z,1.90
2023-02-20T09:11:53.775Z,1.90
2023-02-20T09:14:21.999Z,2.20
2023-02-20T09:16:53.742Z,1.50
2023-02-20T09:19:27.477Z,2.10
2023-02-20T09:21:56.230Z,1.70
2023-02-20T09:24:25.672Z,1.70
2023-02-20T09:26:57.751Z,1.70
2023-02-20T09:29:26.540Z,2.20
2023-02-20T09:31:55.742Z,2.30
2023-02-20T09:34:24.783Z,2.50
2023-02-20T09:36:55.443Z,2.40
2023-02-20T09:39:25.316Z,2.80
2023-02-20T09:45:36.907Z,2.70
2023-02-20T09:48:21.259Z,2.70
2023-02-20T09:50:57.927Z,2.80
2023-02-20T09:53:38.181Z,2.10
2023-02-20T09:56:12.261Z,2.60
2023-02-20T09:59:04.750Z,2.20
2023-02-20T10:01:35.155Z,2.40
2023-02-20T10:04:18.786Z,2.30
2023-02-20T10:09:16.235Z,2.40
2023-02-20T10:11:47.795Z,2.40
2023-02-20T10:14:41.152Z,2.30
2023-02-20T10:17:16.370Z,2.60
2023-02-20T10:20:00.906Z,2.70
2023-02-20T10:22:49.742Z,2.40
2023-02-20T10:25:21.524Z,1.80
2023-02-20T10:27:58.192Z,2.50
2023-02-20T10:30:32.709Z,2.40
2023-02-20T10:33:10.193Z,2.40
2023-02-20T10:36:17.824Z,2.70
2023-02-20T10:39:08.867Z,1.90
2023-02-20T10:41:43.980Z,2.40
2023-02-20T10:44:17.987Z,2.50
2023-02-20T10:46:50.246Z,2.50
2023-02-20T10:49:25.591Z,3.00
2023-02-20T10:51:56.774Z,3.10
2023-02-20T10:54:45.607Z,2.40
2023-02-20T10:57:21.306Z,3.00
2023-02-20T10:59:56.100Z,2.70
2023-02-20T11:02:26.473Z,2.60
2023-02-20T11:05:00.650Z,2.40
2023-02-20T11:07:30.040Z,2.90
2023-02-20T11:09:58.179Z,1.90
2023-02-20T11:12:34.843Z,2.80
2023-02-20T11:15:12.226Z,2.10
2023-02-20T11:17:49.829Z,2.30
2023-02-20T11:20:35.375Z,3.10
2023-02-20T11:23:04.000Z,2.30
2023-02-20T11:25:36.288Z,2.10
2023-02-20T11:28:19.376Z,1.90
2023-02-20T11:30:58.569Z,3.00
2023-02-20T11:33:29.439Z,2.40
2023-02-20T11:36:36.898Z,2.30
2023-02-20T11:39:17.387Z,2.30
2023-02-20T11:41:45.739Z,2.20
2023-02-20T11:44:24.909Z,2.00
2023-02-20T11:47:22.077Z,1.80
2023-02-20T11:49:50.890Z,2.30
2023-02-20T11:52:21.339Z,2.40
2023-02-20T11:55:09.771Z,2.10
2023-02-20T11:57:42.741Z,2.00
2023-02-20T12:00:26.367Z,2.70
2023-02-20T12:03:12.829Z,2.30
2023-02-20T12:05:46.338Z,2.40
2023-02-20T12:08:38.046Z,2.90
2023-02-20T12:11:21.623Z,2.50
2023-02-20T12:13:51.423Z,2.30
2023-02-20T12:16:23.483Z,2.20
2023-02-20T12:19:11.457Z,2.00
2023-02-20T12:21:57.373Z,2.30
2023-02-20T12:24:32.443Z,2.50
2023-02-20T12:27:02.867Z,2.30
2023-02-20T12:29:58.121Z,2.90
2023-02-20T12:32:58.063Z,2.40
2023-02-20T12:35:34.045Z,2.20
2023-02-20T12:38:15.781Z,2.30
2023-02-20T12:41:16.373Z,2.60
2023-02-20T12:44:14.707Z,2.70
2023-02-20T12:47:16.695Z,3.00
2023-02-20T12:50:14.464Z,2.30
2023-02-20T12:52:54.939Z,2.20
2023-02-20T12:55:50.810Z,1.80
2023-02-20T12:58:46.761Z,1.90
2023-02-20T13:01:22.792Z,2.10
2023-02-20T13:04:06.104Z,2.40
2023-02-20T13:06:45.509Z,2.30
2023-02-20T13:09:13.923Z,2.20
2023-02-20T13:11:43.512Z,2.20
2023-02-20T13:14:14.806Z,2.90
2023-02-20T13:17:01.855Z,4.80
2023-02-20T13:19:39.405Z,2.30
2023-02-20T13:22:12.381Z,3.00
2023-02-20T13:24:41.813Z,2.80
2023-02-20T13:27:11.469Z,2.90
2023-02-20T13:30:03.965Z,2.90
2023-02-20T13:32:33.097Z,2.20
2023-02-20T13:35:39.622Z,2.90
2023-02-20T13:38:15.669Z,3.30
2023-02-20T13:40:56.465Z,2.20
2023-02-20T13:43:36.279Z,2.80
2023-02-20T13:46:16.149Z,2.60
2023-02-20T13:48:48.346Z,2.60
2023-02-20T13:51:16.570Z,2.40
2023-02-20T13:53:49.487Z,3.10
2023-02-20T13:56:18.644Z,3.10
2023-02-20T13:58:47.752Z,3.00
2023-02-20T14:01:18.723Z,3.70
2023-02-20T14:03:59.587Z,3.00
2023-02-20T14:06:30.001Z,2.70
2023-02-20T14:09:16.910Z,3.20
2023-02-20T14:11:45.791Z,3.00
2023-02-20T14:14:44.695Z,3.80
2023-02-20T14:17:19.581Z,2.90
2023-02-20T14:19:59.538Z,3.00
2023-02-20T14:22:34.769Z,2.90
2023-02-20T14:25:25.422Z,3.40
2023-02-20T14:28:06.393Z,3.20
2023-02-20T14:30:35.492Z,3.00
2023-02-20T14:33:03.936Z,2.90
2023-02-20T14:36:02.532Z,3.00
2023-02-20T14:39:08.987Z,3.60
2023-02-20T14:41:37.813Z,3.20
2023-02-20T14:44:14.316Z,3.20
2023-02-20T14:46:43.679Z,3.70
2023-02-20T14:49:18.780Z,3.20
2023-02-20T14:51:47.365Z,3.80
2023-02-20T14:54:23.144Z,3.70
2023-02-20T14:56:52.287Z,3.80
2023-02-20T14:59:33.670Z,3.90
2023-02-20T15:02:31.294Z,3.90
2023-02-20T15:05:04.981Z,4.60
2023-02-20T15:07:39.390Z,5.00
2023-02-20T15:10:29.050Z,4.30
2023-02-20T15:13:09.962Z,5.50
2023-02-20T15:15:49.017Z,5.20
2023-02-20T15:18:32.059Z,4.90
2023-02-20T15:21:00.118Z,5.50
2023-02-20T15:23:36.727Z,6.00
2023-02-20T15:26:31.039Z,5.40
2023-02-20T15:29:22.528Z,6.00
2023-02-20T15:32:04.224Z,6.30
2023-02-20T15:34:37.809Z,7.50
2023-02-20T15:37:39.182Z,6.50
2023-02-20T15:40:22.016Z,7.00
2023-02-20T15:42:56.701Z,6.30
2023-02-20T15:45:29.918Z,6.60
2023-02-20T15:47:58.971Z,8.10
2023-02-20T15:50:27.747Z,7.20
2023-02-20T15:52:56.212Z,6.30
2023-02-20T15:55:25.938Z,7.60
2023-02-20T15:57:58.147Z,8.50
2023-02-20T16:00:30.789Z,8.40
2023-02-20T16:03:01.076Z,8.50
2023-02-20T16:05:29.355Z,7.10
2023-02-20T16:08:01.125Z,6.90
2023-02-20T16:10:29.967Z,6.60
2023-02-20T16:12:58.778Z,6.40
2023-02-20T16:15:27.931Z,5.90
2023-02-20T16:17:56.174Z,7.30
2023-02-20T16:20:27.959Z,6.70
2023-02-20T16:22:57.611Z,5.60
2023-02-20T16:25:25.709Z,4.90
2023-02-20T16:27:54.420Z,4.90
2023-02-20T16:30:33.374Z,6.70
2023-02-20T16:33:03.488Z,5.20
2023-02-20T16:35:31.534Z,4.20
2023-02-20T16:38:00.325Z,4.70
2023-02-20T16:40:28.739Z,4.60
2023-02-20T16:42:59.898Z,4.80
2023-02-20T16:45:28.013Z,5.00
2023-02-20T16:47:56.765Z,4.60
2023-02-20T16:50:28.887Z,4.90
2023-02-20T16:52:58.379Z,4.20
2023-02-20T16:55:32.716Z,5.30
2023-02-20T16:58:01.616Z,4.30
2023-02-20T17:00:32.018Z,6.00
2023-02-20T17:03:01.088Z,5.40
2023-02-20T17:05:34.304Z,5.80
2023-02-20T17:08:05.031Z,5.50
2023-02-20T17:10:36.930Z,5.80
2023-02-20T17:13:05.419Z,4.70
2023-02-20T17:15:37.690Z,5.30
2023-02-20T17:18:11.398Z,5.10
2023-02-20T17:20:40.702Z,5.30
2023-02-20T17:23:10.936Z,5.30
2023-02-20T17:25:42.310Z,5.00
2023-02-20T17:28:10.471Z,5.70
2023-02-20T17:30:39.445Z,5.40
2023-02-20T17:35:35.179Z,5.50
2023-02-20T17:38:04.254Z,5.80
2023-02-20T17:40:33.090Z,6.00
2023-02-20T17:43:01.710Z,5.30
2023-02-20T17:45:32.826Z,4.40
2023-02-20T17:48:01.500Z,4.40
2023-02-20T17:50:30.050Z,5.10
2023-02-20T17:52:59.136Z,5.20
2023-02-20T17:55:27.591Z,4.80
2023-02-20T17:57:56.317Z,5.20
2023-02-20T18:00:28.016Z,5.50
2023-02-20T18:02:56.913Z,7.20
2023-02-20T18:05:25.054Z,7.40
2023-02-20T18:07:56.905Z,5.60
2023-02-20T18:10:25.826Z,5.20
2023-02-20T18:13:03.168Z,5.60
2023-02-20T18:15:33.203Z,5.70
2023-02-20T18:18:07.036Z,5.70
2023-02-20T18:20:36.143Z,5.30
2023-02-20T18:23:05.810Z,7.00
2023-02-20T18:25:40.595Z,7.80
2023-02-20T18:28:09.866Z,5.00
2023-02-20T18:30:39.621Z,4.60
2023-02-20T18:33:08.569Z,5.60
2023-02-20T18:35:41.964Z,5.10
2023-02-20T18:38:11.013Z,4.40
2023-02-20T18:40:39.339Z,4.20
2023-02-20T18:43:08.738Z,4.80
2023-02-20T18:45:36.773Z,4.50
2023-02-20T18:48:06.335Z,4.80
2023-02-20T18:50:34.982Z,4.00
2023-02-20T18:53:04.913Z,5.50
2023-02-20T18:55:34.749Z,4.40
2023-02-20T18:58:02.933Z,5.10
2023-02-20T19:00:34.586Z,3.80
2023-02-20T19:03:07.018Z,4.60
2023-02-20T19:05:35.503Z,4.70
2023-02-20T19:08:04.297Z,4.60
2023-02-20T19:10:32.625Z,4.10
2023-02-20T19:13:00.994Z,5.50
2023-02-20T19:15:33.096Z,4.00
2023-02-20T19:18:01.450Z,3.70
2023-02-20T19:20:31.709Z,3.30
2023-02-20T19:23:02.262Z,3.90
2023-02-20T19:25:30.576Z,3.10
2023-02-20T19:27:58.651Z,3.70
2023-02-20T19:30:26.717Z,4.00
2023-02-20T19:32:54.886Z,3.90
2023-02-20T19:35:23.048Z,4.60
2023-02-20T19:37:51.954Z,4.00
2023-02-20T19:40:20.573Z,3.90
2023-02-20T19:42:50.135Z,3.90
2023-02-20T19:45:18.203Z,4.10
2023-02-20T19:47:46.449Z,4.40
2023-02-20T19:50:16.138Z,3.50
2023-02-20T19:52:44.793Z,4.20
2023-02-20T19:55:19.935Z,3.40
2023-02-20T19:57:48.073Z,2.90
2023-02-20T20:00:18.213Z,3.10
2023-02-20T20:02:47.965Z,2.90
2023-02-20T20:05:16.616Z,3.10
2023-02-20T20:07:45.370Z,2.40
2023-02-20T20:10:21.981Z,3.10
2023-02-20T20:12:50.376Z,2.50
2023-02-20T20:15:22.122Z,2.60
2023-02-20T20:17:57.187Z,1.90
2023-02-20T20:20:25.615Z,2.70
2023-02-20T20:22:58.035Z,2.60
2023-02-20T20:25:26.381Z,2.10
2023-02-20T20:27:55.290Z,2.10
2023-02-20T20:30:25.857Z,2.20
2023-02-20T20:32:53.990Z,2.00
2023-02-20T20:35:23.395Z,2.10
2023-02-20T20:37:56.515Z,2.50
2023-02-20T20:40:26.424Z,2.60
2023-02-20T20:42:55.338Z,2.30
2023-02-20T20:45:24.048Z,2.50
2023-02-20T20:47:52.322Z,2.30
2023-02-20T20:50:23.091Z,2.80
2023-02-20T20:52:52.886Z,2.40
2023-02-20T20:55:21.022Z,2.60
2023-02-20T20:57:51.918Z,2.30
2023-02-20T21:00:25.966Z,2.70
2023-02-20T21:02:54.252Z,2.40
2023-02-20T21:05:24.575Z,2.70
2023-02-20T21:07:53.205Z,2.70
2023-02-20T21:10:22.927Z,1.90
2023-02-20T21:12:51.681Z,1.80
2023-02-20T21:15:21.109Z,2.30
2023-02-20T21:17:49.942Z,2.50
2023-02-20T21:20:23.241Z,2.30
2023-02-20T21:22:54.224Z,2.60
2023-02-20T21:25:27.120Z,2.70
2023-02-20T21:27:56.137Z,2.90
2023-02-20T21:30:25.761Z,2.80
2023-02-20T21:32:54.272Z,2.60
2023-02-20T21:35:23.274Z,2.70
2023-02-20T21:37:51.687Z,3.50
2023-02-20T21:40:19.871Z,3.20
2023-02-20T21:43:07.649Z,2.80
2023-02-20T21:45:36.560Z,2.90
2023-02-20T21:48:05.362Z,3.00
2023-02-20T21:50:34.667Z,2.80
2023-02-20T21:53:05.089Z,3.70
2023-02-20T21:55:33.231Z,4.00
2023-02-20T21:58:01.358Z,3.90
2023-02-20T22:00:29.681Z,4.00
2023-02-20T22:02:58.370Z,4.30
2023-02-20T22:05:27.194Z,3.80
2023-02-20T22:08:18.060Z,3.70
2023-02-20T22:11:05.285Z,3.10
2023-02-20T22:13:52.416Z,3.60
2023-02-20T22:16:41.277Z,3.50
2023-02-20T22:19:28.958Z,3.80
2023-02-20T22:22:19.915Z,3.00
2023-02-20T22:25:06.951Z,3.20
2023-02-20T22:27:54.268Z,3.40
2023-02-20T22:30:41.243Z,3.00
2023-02-20T22:33:31.072Z,3.10
2023-02-20T22:36:18.189Z,2.90
2023-02-20T22:39:07.305Z,3.20
2023-02-20T22:41:55.276Z,3.20
2023-02-20T22:44:42.582Z,2.80
2023-02-20T22:47:29.309Z,3.00
2023-02-20T22:50:16.115Z,3.20
2023-02-20T22:53:03.422Z,2.50
2023-02-20T22:55:50.623Z,3.20
2023-02-20T22:58:37.431Z,3.20
2023-02-20T23:01:24.377Z,3.00
2023-02-20T23:04:11.550Z,2.90
2023-02-20T23:06:58.862Z,3.10
2023-02-20T23:09:45.418Z,2.80
2023-02-20T23:12:32.589Z,3.10
2023-02-20T23:15:20.046Z,3.20
2023-02-20T23:18:08.181Z,3.50
2023-02-20T23:20:55.429Z,3.40
2023-02-20T23:23:42.231Z,3.50
2023-02-20T23:26:29.650Z,3.50
2023-02-20T23:29:16.221Z,3.40
2023-02-20T23:32:03.321Z,3.80
2023-02-20T23:34:50.207Z,3.90
2023-02-20T23:37:38.359Z,4.40
2023-02-20T23:40:35.993Z,4.20
2023-02-20T23:43:24.254Z,3.90
2023-02-20T23:46:11.216Z,4.80
2023-02-20T23:48:58.132Z,4.40
2023-02-20T23:51:45.086Z,4.10
2023-02-20T23:54:32.132Z,5.00
2023-02-20T23:57:18.657Z,5.20
